Time;durP1;ratioP1;P1;durP2;ratioP2;P2;SDS_P1;SDS_P2;PMS_P1;PMS_P2;Temp;Humidity;BMP_temperature;BMP_pressure;BME280_temperature;BME280_humidity;BME280_pressure;Samples;Min_cycle;Max_cycle;Signal;HPM_P1;HPM_P2
2022/07/08 00:01:40;;;;;;;3.53;2.70;;;15.50;96.40;;;;;;5076376;28;20190;-87
2022/07/08 00:04:10;;;;;;;4.35;3.10;;;15.40;96.00;;;;;;5069731;28;20201;-87
2022/07/08 00:06:37;;;;;;;5.47;2.63;;;15.40;95.90;;;;;;5085588;28;20198;-86
2022/07/08 00:09:05;;;;;;;7.22;2.72;;;15.40;95.60;;;;;;5076219;28;20284;-86
2022/07/08 00:11:46;;;;;;;4.97;2.85;;;15.40;95.70;;;;;;5064434;28;20223;-87
2022/07/08 00:14:13;;;;;;;5.40;2.83;;;15.30;95.60;;;;;;5072201;28;20263;-88
2022/07/08 00:16:43;;;;;;;3.92;2.67;;;15.30;96.00;;;;;;5067046;28;20189;-87
2022/07/08 00:19:19;;;;;;;4.78;3.25;;;15.40;95.90;;;;;;5070406;28;20201;-88
2022/07/08 00:22:04;;;;;;;4.97;2.58;;;15.40;95.60;;;;;;5060301;28;20217;-88
2022/07/08 00:24:33;;;;;;;3.05;2.70;;;15.60;95.40;;;;;;5068268;28;20231;-87
2022/07/08 00:27:00;;;;;;;4.25;2.80;;;15.70;94.90;;;;;;5073065;28;20208;-87
2022/07/08 00:29:27;;;;;;;4.10;2.75;;;15.70;93.90;;;;;;5072979;28;20197;-87
2022/07/08 00:32:33;;;;;;;2.70;2.50;;;15.60;94.50;;;;;;5067068;28;20224;-87
2022/07/08 00:35:00;;;;;;;4.15;2.85;;;15.60;95.10;;;;;;5065746;28;20213;-87
2022/07/08 00:37:40;;;;;;;4.10;2.92;;;15.50;95.40;;;;;;5067723;28;20640;-87
2022/07/08 00:40:11;;;;;;;4.43;2.90;;;15.40;95.50;;;;;;5065660;28;20202;-87
2022/07/08 00:42:48;;;;;;;4.38;2.88;;;15.40;95.70;;;;;;5074565;28;20216;-86
2022/07/08 00:45:28;;;;;;;4.20;2.90;;;15.50;95.80;;;;;;5071517;28;20288;-87
2022/07/08 00:47:55;;;;;;;5.03;2.70;;;15.50;95.50;;;;;;5071882;28;20216;-87
2022/07/08 00:50:23;;;;;;;6.25;2.92;;;15.40;95.50;;;;;;5074516;28;20199;-86
2022/07/08 00:52:52;;;;;;;5.10;2.70;;;15.40;95.70;;;;;;5064277;28;20307;-87
2022/07/08 00:55:41;;;;;;;6.20;3.03;;;15.40;95.60;;;;;;5058766;28;20201;-87
2022/07/08 00:58:08;;;;;;;4.55;2.67;;;15.40;95.70;;;;;;5071321;28;20189;-87
2022/07/08 01:00:54;;;;;;;5.10;2.80;;;15.40;96.10;;;;;;5072534;28;20194;-86
2022/07/08 01:03:22;;;;;;;4.57;2.88;;;15.40;96.00;;;;;;5060625;28;20189;-87
2022/07/08 01:05:58;;;;;;;3.90;2.50;;;15.30;96.30;;;;;;5069076;28;20195;-87
2022/07/08 01:08:25;;;;;;;6.78;2.90;;;15.40;96.40;;;;;;5065689;28;20654;-87
2022/07/08 01:11:13;;;;;;;5.32;2.88;;;15.50;96.10;;;;;;5064329;28;20197;-87
2022/07/08 01:13:40;;;;;;;4.15;2.67;;;15.40;96.10;;;;;;5070387;28;20564;-87
2022/07/08 01:16:10;;;;;;;6.30;3.15;;;15.40;96.50;;;;;;5070949;28;20194;-87
2022/07/08 01:18:41;;;;;;;3.10;2.80;;;15.40;96.50;;;;;;5061705;28;20197;-86
2022/07/08 01:21:23;;;;;;;3.45;2.90;;;15.30;96.50;;;;;;5073419;28;20189;-87
2022/07/08 01:23:52;;;;;;;6.90;3.50;;;15.40;96.30;;;;;;5069816;28;20194;-87
2022/07/08 01:26:22;;;;;;;3.30;2.70;;;15.50;96.10;;;;;;5073397;28;20202;-86
2022/07/08 01:28:49;;;;;;;3.90;3.03;;;15.50;96.10;;;;;;5062323;28;20209;-87
2022/07/08 01:31:28;;;;;;;6.03;5.43;;;15.50;95.70;;;;;;5070176;28;20200;-87
2022/07/08 01:33:55;;;;;;;5.53;3.63;;;15.50;95.70;;;;;;5076447;28;20209;-87
2022/07/08 01:36:23;;;;;;;2.97;2.60;;;15.60;95.40;;;;;;5071968;28;20195;-87
2022/07/08 01:38:52;;;;;;;4.10;2.90;;;15.50;95.40;;;;;;5076141;28;20193;-87
2022/07/08 01:41:46;;;;;;;3.00;2.63;;;15.40;95.20;;;;;;5073656;28;20194;-88
2022/07/08 01:44:28;;;;;;;4.30;2.97;;;15.40;95.60;;;;;;5064096;28;20213;-87
2022/07/08 01:47:16;;;;;;;5.35;3.05;;;15.40;95.50;;;;;;5075170;28;20647;-87
2022/07/08 01:49:46;;;;;;;4.53;3.33;;;15.40;95.30;;;;;;5073264;28;20197;-87
2022/07/08 01:52:17;;;;;;;4.57;2.85;;;15.40;94.90;;;;;;5063821;28;20194;-87
2022/07/08 01:54:52;;;;;;;4.65;3.00;;;15.40;94.80;;;;;;5066235;28;20217;-87
2022/07/08 01:57:28;;;;;;;6.13;3.17;;;15.50;94.70;;;;;;5075024;28;20184;-87
2022/07/08 01:59:58;;;;;;;3.63;2.85;;;15.50;94.80;;;;;;5063352;28;20197;-86
2022/07/08 02:02:28;;;;;;;4.30;2.72;;;15.50;94.90;;;;;;5074639;28;20197;-87
2022/07/08 02:04:58;;;;;;;5.47;2.70;;;15.50;95.30;;;;;;5064520;28;20201;-88
2022/07/08 02:07:43;;;;;;;3.03;2.72;;;15.50;95.30;;;;;;5068165;28;20194;-87
2022/07/08 02:10:11;;;;;;;4.35;2.90;;;15.50;95.30;;;;;;5077536;28;20193;-86
2022/07/08 02:12:45;;;;;;;3.35;2.95;;;15.50;95.00;;;;;;5089384;28;20193;-86
2022/07/08 02:15:22;;;;;;;4.57;2.78;;;15.60;94.20;;;;;;5072979;28;20217;-87
2022/07/08 02:17:49;;;;;;;3.33;2.78;;;15.50;94.10;;;;;;5072539;28;20197;-87
2022/07/08 02:20:17;;;;;;;6.15;2.85;;;15.50;94.60;;;;;;5065597;28;20201;-87
2022/07/08 02:22:47;;;;;;;3.78;2.80;;;15.60;94.40;;;;;;5076314;28;20204;-87
2022/07/08 02:25:34;;;;;;;27.70;22.08;;;15.50;93.60;;;;;;5072723;28;20201;-87
2022/07/08 02:28:22;;;;;;;34.50;26.70;;;15.60;93.90;;;;;;5074362;28;20205;-87
2022/07/08 02:30:52;;;;;;;18.42;14.38;;;15.70;93.20;;;;;;5060624;28;20209;-87
2022/07/08 02:33:28;;;;;;;2.70;2.38;;;15.70;92.50;;;;;;5060270;28;20224;-87
2022/07/08 02:35:55;;;;;;;5.10;2.55;;;15.60;91.60;;;;;;5064484;28;20220;-88
2022/07/08 02:38:30;;;;;;;2.08;1.70;;;15.50;91.60;;;;;;5064370;28;20198;-87
2022/07/08 02:40:57;;;;;;;4.72;2.13;;;15.30;90.30;;;;;;5072782;28;20199;-87
2022/07/08 02:44:03;;;;;;;4.65;2.50;;;15.20;90.30;;;;;;5065576;28;20217;-87
2022/07/08 02:46:41;;;;;;;4.80;2.45;;;15.20;90.50;;;;;;5071579;28;20207;-86
2022/07/08 02:49:10;;;;;;;4.65;2.17;;;15.20;91.50;;;;;;5072739;28;20292;-88
2022/07/08 02:51:52;;;;;;;4.38;1.90;;;15.10;91.50;;;;;;5074061;28;20192;-87
2022/07/08 02:54:35;;;;;;;4.82;2.78;;;15.10;91.50;;;;;;5069143;28;20217;-87
2022/07/08 02:57:10;;;;;;;2.90;2.10;;;15.10;91.80;;;;;;5068103;28;20201;-87
2022/07/08 02:59:46;;;;;;;5.15;2.10;;;15.20;91.50;;;;;;5073844;28;20189;-87
2022/07/08 03:02:16;;;;;;;3.70;1.67;;;15.30;91.50;;;;;;5069516;28;20656;-87
2022/07/08 03:05:10;;;;;;;4.88;1.80;;;15.40;90.80;;;;;;5072444;28;20185;-87
2022/07/08 03:07:52;;;;;;;4.07;1.85;;;15.30;90.50;;;;;;5072308;28;20662;-87
2022/07/08 03:10:23;;;;;;;5.28;1.98;;;15.30;91.00;;;;;;5070008;28;20204;-87
2022/07/08 03:13:10;;;;;;;5.07;2.10;;;15.10;90.40;;;;;;5073612;28;20197;-87
2022/07/08 03:15:36;;;;;;;29.98;22.67;;;15.00;90.80;;;;;;5069436;28;20209;-86
2022/07/08 03:18:22;;;;;;;9.38;4.63;;;14.90;91.40;;;;;;5069154;28;20190;-87
2022/07/08 03:20:49;;;;;;;16.85;9.50;;;14.80;89.50;;;;;;5074762;28;20198;-87
2022/07/08 03:23:16;;;;;;;13.70;8.13;;;14.70;89.60;;;;;;5067495;28;20205;-87
2022/07/08 03:25:48;;;;;;;6.93;4.45;;;14.90;90.90;;;;;;5069540;28;20204;-87
2022/07/08 03:28:15;;;;;;;7.93;2.70;;;14.80;82.80;;;;;;5078884;28;20233;-86
2022/07/08 03:30:58;;;;;;;5.57;1.90;;;14.60;80.90;;;;;;5071947;28;20875;-86
2022/07/08 03:33:25;;;;;;;6.93;3.72;;;14.60;81.70;;;;;;5070836;28;20231;-86
2022/07/08 03:36:06;;;;;;;8.27;4.03;;;14.70;83.10;;;;;;5079245;28;20207;-86
2022/07/08 03:38:35;;;;;;;7.93;3.67;;;14.80;82.20;;;;;;5069932;28;20220;-87
2022/07/08 03:41:21;;;;;;;6.85;2.45;;;14.80;85.30;;;;;;5075818;28;20190;-86
2022/07/08 03:43:58;;;;;;;6.75;2.17;;;15.00;78.10;;;;;;5073218;28;20205;-86
2022/07/08 03:46:28;;;;;;;7.10;1.90;;;14.80;77.10;;;;;;5072853;28;20205;-86
2022/07/08 03:48:55;;;;;;;5.32;2.10;;;14.60;77.00;;;;;;5076983;28;20200;-86
2022/07/08 03:51:23;;;;;;;7.32;1.80;;;14.60;78.50;;;;;;5077756;28;20193;-86
2022/07/08 03:53:58;;;;;;;5.68;1.80;;;14.60;77.00;;;;;;5073405;28;20203;-86
2022/07/08 03:56:30;;;;;;;5.15;1.50;;;14.40;76.10;;;;;;5081341;28;20197;-87
2022/07/08 03:59:04;;;;;;;6.63;1.95;;;14.30;76.80;;;;;;5083392;28;20235;-86
2022/07/08 04:01:40;;;;;;;4.60;1.90;;;14.20;79.90;;;;;;5080069;28;20227;-86
2022/07/08 04:04:10;;;;;;;5.28;1.80;;;14.30;76.80;;;;;;5075201;28;20209;-86
2022/07/08 04:06:40;;;;;;;6.15;1.80;;;14.70;76.20;;;;;;5076679;28;20201;-87
2022/07/08 04:09:10;;;;;;;3.70;1.67;;;14.50;73.20;;;;;;5070837;28;20225;-86
2022/07/08 04:11:38;;;;;;;6.07;1.88;;;14.40;76.50;;;;;;5082872;28;20208;-86
2022/07/08 04:14:05;;;;;;;5.90;1.77;;;14.50;79.20;;;;;;5085675;28;20207;-86
2022/07/08 04:16:46;;;;;;;6.25;1.80;;;14.40;73.20;;;;;;5083267;28;20197;-86
2022/07/08 04:19:40;;;;;;;5.78;2.00;;;14.40;76.60;;;;;;5081484;28;20196;-86
2022/07/08 04:22:10;;;;;;;6.35;2.00;;;14.40;76.80;;;;;;5077084;28;20194;-87
2022/07/08 04:24:37;;;;;;;3.95;1.67;;;14.60;77.00;;;;;;5076043;28;20202;-85
2022/07/08 04:27:06;;;;;;;3.08;1.50;;;14.70;75.70;;;;;;5073773;28;20256;-85
2022/07/08 04:29:40;;;;;;;5.00;1.70;;;14.80;77.10;;;;;;5072311;28;20644;-85
2022/07/08 04:32:08;;;;;;;7.07;1.60;;;14.90;77.00;;;;;;5072362;28;20228;-85
2022/07/08 04:34:59;;;;;;;6.25;1.83;;;15.10;71.20;;;;;;5063292;28;20224;-85
2022/07/08 04:37:26;;;;;;;5.60;1.75;;;14.90;67.80;;;;;;5065762;28;20198;-85
2022/07/08 04:40:40;;;;;;;5.80;1.80;;;14.80;70.90;;;;;;5071656;28;20201;-86
2022/07/08 04:43:09;;;;;;;4.78;1.63;;;14.70;71.30;;;;;;5066712;28;20190;-86
2022/07/08 04:45:35;;;;;;;5.00;1.90;;;14.90;68.00;;;;;;5066096;28;20207;-87
2022/07/08 04:48:10;;;;;;;4.82;1.95;;;14.90;68.70;;;;;;5066779;28;20216;-86
2022/07/08 04:51:04;;;;;;;5.20;1.63;;;14.70;68.90;;;;;;5062717;28;20204;-87
2022/07/08 04:53:31;;;;;;;8.48;1.90;;;14.80;68.90;;;;;;5063878;28;20201;-86
2022/07/08 04:56:05;;;;;;;5.43;1.85;;;14.70;68.90;;;;;;5067003;28;20672;-87
2022/07/08 04:58:33;;;;;;;5.55;1.60;;;14.60;68.60;;;;;;5065942;28;20288;-85
2022/07/08 05:01:04;;;;;;;5.93;1.65;;;14.50;69.00;;;;;;5069063;28;20559;-86
2022/07/08 05:04:04;;;;;;;4.57;1.70;;;14.50;69.20;;;;;;5072241;28;20197;-86
2022/07/08 05:06:47;;;;;;;4.57;1.77;;;14.50;66.70;;;;;;5065884;28;20193;-88
2022/07/08 05:09:14;;;;;;;4.57;1.33;;;14.50;63.30;;;;;;5064527;28;20620;-87
2022/07/08 05:11:46;;;;;;;3.97;1.45;;;14.50;64.70;;;;;;5076942;28;20193;-87
2022/07/08 05:14:18;;;;;;;5.18;1.80;;;14.60;62.10;;;;;;5074749;28;20197;-87
2022/07/08 05:17:04;;;;;;;7.35;1.70;;;14.80;62.30;;;;;;5061087;28;20222;-87
2022/07/08 05:19:40;;;;;;;5.40;1.75;;;15.30;58.00;;;;;;5076766;28;20193;-85
2022/07/08 05:22:16;;;;;;;5.78;1.95;;;15.40;56.60;;;;;;5077815;28;20196;-85
2022/07/08 05:24:46;;;;;;;8.55;1.70;;;15.70;55.20;;;;;;5073637;28;20197;-84
2022/07/08 05:27:58;;;;;;;5.82;1.83;;;15.70;52.00;;;;;;5073988;28;20190;-84
2022/07/08 05:30:42;;;;;;;3.60;1.52;;;15.60;51.90;;;;;;5068287;28;20197;-84
2022/07/08 05:33:10;;;;;;;6.70;1.95;;;15.50;51.80;;;;;;5075118;28;20219;-86
2022/07/08 05:35:40;;;;;;;4.53;1.63;;;15.60;51.90;;;;;;5082471;28;20213;-86
2022/07/08 05:38:07;;;;;;;4.10;1.67;;;15.40;52.10;;;;;;5082267;28;20193;-86
2022/07/08 05:40:34;;;;;;;9.35;1.67;;;15.40;52.90;;;;;;5094910;28;20260;-87
2022/07/08 05:43:01;;;;;;;6.22;1.80;;;15.20;51.60;;;;;;5087319;28;20207;-86
2022/07/08 05:45:28;;;;;;;4.63;1.60;;;15.20;52.90;;;;;;5082611;28;20224;-86
2022/07/08 05:48:24;;;;;;;9.20;1.80;;;15.40;51.80;;;;;;5068453;28;20194;-86
2022/07/08 05:50:52;;;;;;;9.25;1.88;;;15.60;51.90;;;;;;5073606;28;20223;-86
2022/07/08 05:53:19;;;;;;;6.50;1.92;;;15.80;51.50;;;;;;5079572;28;20548;-86
2022/07/08 05:55:52;;;;;;;8.07;1.70;;;16.20;50.10;;;;;;5085282;28;20256;-84
2022/07/08 05:58:22;;;;;;;6.07;1.63;;;16.70;42.60;;;;;;5087541;28;20200;-85
2022/07/08 06:00:52;;;;;;;8.07;1.77;;;16.80;40.70;;;;;;5080755;28;20193;-84
2022/07/08 06:03:36;;;;;;;6.38;1.52;;;16.80;41.50;;;;;;5085294;28;20197;-84
2022/07/08 06:06:05;;;;;;;4.70;1.70;;;16.80;40.60;;;;;;5083208;28;20195;-84
2022/07/08 06:08:31;;;;;;;6.90;1.73;;;16.70;39.90;;;;;;5083414;28;20201;-84
2022/07/08 06:11:16;;;;;;;4.50;1.80;;;16.30;40.80;;;;;;5083397;28;20212;-84
2022/07/08 06:13:47;;;;;;;6.20;1.77;;;16.10;42.70;;;;;;5072071;28;20208;-86
2022/07/08 06:16:34;;;;;;;5.63;1.73;;;15.90;44.30;;;;;;5074835;28;20214;-84
2022/07/08 06:19:06;;;;;;;5.43;1.80;;;15.70;44.60;;;;;;5071562;28;20640;-84
2022/07/08 06:21:33;;;;;;;6.30;1.60;;;15.60;46.80;;;;;;5077589;28;20209;-84
2022/07/08 06:24:00;;;;;;;6.78;1.80;;;15.50;51.80;;;;;;5077478;28;20198;-87
2022/07/08 06:26:27;;;;;;;5.78;1.90;;;15.80;52.10;;;;;;5090387;28;20219;-85
2022/07/08 06:29:04;;;;;;;5.10;2.00;;;15.80;49.50;;;;;;5078374;28;20198;-85
2022/07/08 06:31:40;;;;;;;5.32;1.70;;;15.80;48.60;;;;;;5084330;28;20224;-84
2022/07/08 06:34:18;;;;;;;5.93;1.85;;;15.90;45.20;;;;;;5081908;28;20256;-84
2022/07/08 06:36:45;;;;;;;6.80;1.95;;;15.70;48.30;;;;;;5074806;28;20225;-84
2022/07/08 06:39:22;;;;;;;4.00;1.60;;;15.70;49.50;;;;;;5075024;28;20213;-88
2022/07/08 06:41:58;;;;;;;7.10;2.05;;;15.50;50.20;;;;;;5072144;28;20197;-84
2022/07/08 06:44:28;;;;;;;3.78;1.75;;;15.60;48.80;;;;;;5077360;28;20225;-84
2022/07/08 06:47:11;;;;;;;5.55;1.80;;;15.70;46.00;;;;;;5073127;28;20648;-85
2022/07/08 06:49:39;;;;;;;3.60;1.73;;;15.70;45.40;;;;;;5075681;28;20220;-84
2022/07/08 06:52:10;;;;;;;6.40;1.60;;;15.70;47.50;;;;;;5079706;28;20283;-84
2022/07/08 06:54:40;;;;;;;5.00;1.77;;;15.90;48.20;;;;;;5080427;28;20190;-85
2022/07/08 06:57:10;;;;;;;3.85;1.60;;;15.90;44.20;;;;;;5070139;28;20687;-85
2022/07/08 06:59:38;;;;;;;2.80;1.48;;;16.10;45.20;;;;;;5080111;28;20261;-84
2022/07/08 07:02:10;;;;;;;6.60;1.80;;;16.00;42.40;;;;;;5071738;28;20190;-84
2022/07/08 07:04:59;;;;;;;4.75;1.63;;;16.00;41.10;;;;;;5085223;28;20197;-84
2022/07/08 07:07:27;;;;;;;6.78;1.90;;;16.10;43.60;;;;;;5074353;28;20198;-85
2022/07/08 07:10:36;;;;;;;5.82;1.80;;;16.30;41.40;;;;;;5087239;28;20193;-85
2022/07/08 07:13:04;;;;;;;2.75;1.50;;;16.30;38.30;;;;;;5070939;28;20194;-84
2022/07/08 07:15:46;;;;;;;6.85;1.90;;;16.30;39.60;;;;;;5077416;28;20301;-84
2022/07/08 07:18:13;;;;;;;4.72;1.65;;;16.40;39.40;;;;;;5070510;28;20301;-85
2022/07/08 07:20:42;;;;;;;7.88;1.75;;;16.60;40.00;;;;;;5079924;28;20189;-84
2022/07/08 07:23:16;;;;;;;4.85;1.40;;;17.10;37.20;;;;;;5084200;28;20196;-84
2022/07/08 07:25:52;;;;;;;5.38;1.75;;;17.30;33.50;;;;;;5070845;28;20196;-85
2022/07/08 07:28:19;;;;;;;4.22;1.63;;;17.60;31.90;;;;;;5081498;28;20193;-84
2022/07/08 07:30:46;;;;;;;4.18;1.63;;;17.70;30.30;;;;;;5079604;28;20197;-87
2022/07/08 07:33:13;;;;;;;3.90;1.38;;;18.00;32.10;;;;;;5065739;28;20221;-85
2022/07/08 07:35:42;;;;;;;5.20;1.48;;;17.90;31.40;;;;;;5064990;28;20704;-85
2022/07/08 07:38:08;;;;;;;4.45;1.50;;;17.80;32.70;;;;;;5068310;28;20193;-86
2022/07/08 07:40:46;;;;;;;5.55;1.83;;;17.90;33.70;;;;;;5071352;28;20201;-85
2022/07/08 07:43:13;;;;;;;5.28;1.90;;;17.50;32.80;;;;;;5074921;28;20209;-86
2022/07/08 07:45:40;;;;;;;7.68;2.05;;;17.20;33.70;;;;;;5066202;28;20194;-86
2022/07/08 07:48:07;;;;;;;4.43;1.55;;;17.20;35.80;;;;;;5071051;28;20620;-86
2022/07/08 07:50:35;;;;;;;5.82;1.80;;;17.30;41.20;;;;;;5064116;28;20194;-86
2022/07/08 07:53:12;;;;;;;4.70;1.65;;;17.50;37.10;;;;;;5072956;28;20721;-85
2022/07/08 07:55:41;;;;;;;3.15;1.85;;;17.40;39.30;;;;;;5061756;28;20217;-86
2022/07/08 07:58:08;;;;;;;7.28;1.98;;;17.30;38.60;;;;;;5070171;28;20201;-85
2022/07/08 08:00:41;;;;;;;4.35;1.80;;;17.30;36.70;;;;;;5075504;28;20232;-86
2022/07/08 08:03:08;;;;;;;5.47;1.92;;;17.20;38.30;;;;;;5071990;28;20202;-86
2022/07/08 08:05:42;;;;;;;5.78;1.88;;;17.00;39.60;;;;;;5072997;28;20209;-86
2022/07/08 08:08:09;;;;;;;5.13;1.58;;;17.10;42.00;;;;;;5070601;28;20296;-86
2022/07/08 08:10:38;;;;;;;7.68;2.00;;;17.00;42.30;;;;;;5063446;28;20201;-85
2022/07/08 08:13:11;;;;;;;4.20;1.75;;;17.00;42.40;;;;;;5069539;28;20233;-85
2022/07/08 08:15:41;;;;;;;5.60;1.67;;;17.20;40.90;;;;;;5078547;28;20197;-85
2022/07/08 08:18:07;;;;;;;7.00;1.85;;;17.30;42.20;;;;;;5080995;28;20538;-85
2022/07/08 08:20:42;;;;;;;5.10;2.10;;;17.30;39.60;;;;;;5082093;28;20186;-85
2022/07/08 08:23:09;;;;;;;4.82;1.70;;;17.30;42.30;;;;;;5084865;28;20267;-85
2022/07/08 08:25:48;;;;;;;7.32;1.70;;;17.30;41.70;;;;;;5083985;28;20203;-85
2022/07/08 08:28:16;;;;;;;6.68;2.08;;;17.30;43.90;;;;;;5081211;28;20581;-85
2022/07/08 08:30:43;;;;;;;4.88;1.75;;;17.20;43.00;;;;;;5083622;28;20206;-85
2022/07/08 08:33:34;;;;;;;6.05;2.13;;;17.50;42.60;;;;;;5080394;28;20222;-85
2022/07/08 08:36:05;;;;;;;6.63;1.88;;;17.80;40.50;;;;;;5077217;28;20690;-85
2022/07/08 08:38:32;;;;;;;4.32;1.70;;;18.00;39.90;;;;;;5075580;28;20201;-85
2022/07/08 08:41:12;;;;;;;5.35;2.10;;;18.10;38.50;;;;;;5077411;28;20201;-84
2022/07/08 08:43:41;;;;;;;3.47;1.50;;;18.40;37.50;;;;;;5069832;28;20649;-85
2022/07/08 08:46:11;;;;;;;5.18;1.90;;;18.40;36.40;;;;;;5070257;28;20216;-85
2022/07/08 08:48:56;;;;;;;6.93;1.73;;;18.20;35.70;;;;;;5079419;28;20200;-85
2022/07/08 08:51:24;;;;;;;8.68;2.20;;;18.30;37.20;;;;;;5062563;28;20648;-85
2022/07/08 08:53:54;;;;;;;6.25;2.38;;;18.30;38.60;;;;;;5071589;28;20189;-85
2022/07/08 08:56:30;;;;;;;4.63;2.00;;;18.20;35.90;;;;;;5081150;28;20296;-85
2022/07/08 08:59:00;;;;;;;6.93;2.20;;;18.00;40.20;;;;;;5079966;28;20215;-85
2022/07/08 09:01:30;;;;;;;5.68;1.80;;;18.50;46.40;;;;;;5078455;28;20193;-85
2022/07/08 09:04:40;;;;;;;5.50;1.92;;;18.40;37.80;;;;;;5078059;28;20220;-85
2022/07/08 09:07:07;;;;;;;7.35;1.88;;;18.60;37.40;;;;;;5076500;28;20205;-85
2022/07/08 09:09:52;;;;;;;7.43;2.03;;;18.30;39.80;;;;;;5059709;28;20572;-85
2022/07/08 09:12:22;;;;;;;9.93;3.17;;;18.30;36.30;;;;;;5061722;28;20196;-85
2022/07/08 09:15:00;;;;;;;5.78;2.03;;;18.50;39.00;;;;;;5073772;28;20232;-83
2022/07/08 09:17:43;;;;;;;7.63;2.22;;;18.50;35.40;;;;;;5081174;28;20209;-83
2022/07/08 09:20:10;;;;;;;6.53;1.70;;;18.60;39.40;;;;;;5076800;28;20201;-83
2022/07/08 09:22:37;;;;;;;6.18;2.20;;;18.80;33.60;;;;;;5081749;28;20671;-83
2022/07/08 09:25:05;;;;;;;6.35;2.13;;;18.50;33.70;;;;;;5083134;28;20208;-82
2022/07/08 09:27:36;;;;;;;5.95;1.92;;;18.50;37.40;;;;;;5072628;28;20197;-83
2022/07/08 09:30:15;;;;;;;4.70;1.80;;;18.60;38.40;;;;;;5076956;28;20203;-82
2022/07/08 09:32:56;;;;;;;3.90;1.80;;;18.70;32.90;;;;;;5072095;28;20236;-82
2022/07/08 09:35:43;;;;;;;3.60;1.70;;;18.70;33.80;;;;;;5084490;28;20193;-83
2022/07/08 09:38:11;;;;;;;5.75;1.83;;;19.00;32.20;;;;;;5071662;28;20252;-82
2022/07/08 09:40:55;;;;;;;3.50;1.83;;;18.70;31.00;;;;;;5084521;28;20652;-82
2022/07/08 09:43:24;;;;;;;12.60;2.17;;;18.60;33.40;;;;;;5083488;28;20193;-83
2022/07/08 09:46:04;;;;;;;6.25;2.15;;;18.40;34.50;;;;;;5085937;28;20213;-83
2022/07/08 09:48:31;;;;;;;5.88;1.70;;;18.70;33.90;;;;;;5083206;28;20606;-82
2022/07/08 09:51:07;;;;;;;6.05;2.10;;;18.90;33.90;;;;;;5079093;28;20194;-83
2022/07/08 09:53:37;;;;;;;6.72;2.13;;;19.10;31.30;;;;;;5088565;28;20203;-83
2022/07/08 09:56:06;;;;;;;5.03;1.90;;;19.30;31.50;;;;;;5088089;28;20261;-83
2022/07/08 09:58:54;;;;;;;5.88;1.92;;;19.60;31.70;;;;;;5072007;28;20193;-83
2022/07/08 10:01:23;;;;;;;7.88;2.00;;;19.90;28.90;;;;;;5084020;28;20205;-83
2022/07/08 10:03:54;;;;;;;7.05;2.00;;;20.10;27.20;;;;;;5084050;28;20224;-83
2022/07/08 10:06:22;;;;;;;5.88;2.05;;;20.40;25.80;;;;;;5079902;28;20189;-83
2022/07/08 10:08:54;;;;;;;4.82;1.88;;;20.50;25.80;;;;;;5091913;28;20637;-85
2022/07/08 10:11:23;;;;;;;3.97;1.70;;;20.60;29.60;;;;;;5090718;28;20210;-83
2022/07/08 10:14:01;;;;;;;4.07;1.98;;;20.80;27.00;;;;;;5090345;28;20256;-84
2022/07/08 10:16:42;;;;;;;3.42;1.70;;;21.00;24.20;;;;;;5083356;28;20228;-83
2022/07/08 10:19:14;;;;;;;4.10;1.77;;;21.30;24.60;;;;;;5072753;28;20634;-83
2022/07/08 10:22:00;;;;;;;3.35;1.67;;;21.20;25.00;;;;;;5079240;28;20223;-80
2022/07/08 10:24:29;;;;;;;4.13;2.08;;;21.20;25.00;;;;;;5069976;28;20198;-81
2022/07/08 10:27:24;;;;;;;3.00;1.77;;;21.10;24.50;;;;;;5080444;28;20193;-81
2022/07/08 10:30:13;;;;;;;5.35;2.05;;;20.80;25.50;;;;;;5073986;28;20209;-80
2022/07/08 10:32:40;;;;;;;4.90;2.10;;;20.40;27.10;;;;;;5082187;28;20224;-80
2022/07/08 10:35:28;;;;;;;7.38;1.85;;;19.90;26.20;;;;;;5070643;28;20206;-90
2022/07/08 10:37:59;;;;;;;5.65;2.13;;;20.10;28.40;;;;;;5074719;28;20653;-81
2022/07/08 10:40:51;;;;;;;5.38;1.77;;;20.60;27.40;;;;;;5082297;28;20197;-81
2022/07/08 10:43:52;;;;;;;4.10;1.90;;;21.40;25.50;;;;;;5076977;28;20193;-79
2022/07/08 10:46:36;;;;;;;9.50;2.00;;;22.20;21.60;;;;;;5065096;28;20209;-81
2022/07/08 10:49:22;;;;;;;5.25;2.40;;;22.00;21.90;;;;;;5073525;28;20648;-83
2022/07/08 10:51:49;;;;;;;4.05;2.10;;;21.40;22.70;;;;;;5068699;28;20198;-84
2022/07/08 10:54:29;;;;;;;3.35;2.10;;;20.80;22.80;;;;;;5072144;28;20729;-85
2022/07/08 10:57:01;;;;;;;4.57;1.98;;;21.10;22.10;;;;;;5069055;28;20232;-81
2022/07/08 10:59:30;;;;;;;4.57;2.00;;;22.10;22.80;;;;;;5067949;28;20205;-82
2022/07/08 11:02:15;;;;;;;6.68;2.30;;;22.60;23.20;;;;;;5067380;28;20213;-82
2022/07/08 11:04:47;;;;;;;4.47;1.92;;;23.20;20.10;;;;;;5072401;28;20201;-85
2022/07/08 11:07:26;;;;;;;3.35;1.70;;;23.50;18.50;;;;;;5070134;28;20687;-83
2022/07/08 11:10:03;;;;;;;4.70;2.08;;;23.40;18.80;;;;;;5068752;28;20270;-84
2022/07/08 11:12:31;;;;;;;4.30;1.85;;;23.20;18.60;;;;;;5063309;28;20193;-83
2022/07/08 11:15:07;;;;;;;5.18;2.10;;;22.10;19.40;;;;;;5066967;28;20206;-83
2022/07/08 11:17:43;;;;;;;5.05;1.98;;;21.60;20.20;;;;;;5073260;28;20616;-83
2022/07/08 11:20:12;;;;;;;6.15;2.33;;;22.10;21.90;;;;;;5075970;28;20203;-83
2022/07/08 11:22:43;;;;;;;5.30;1.92;;;22.50;22.30;;;;;;5081560;28;20204;-83
2022/07/08 11:25:12;;;;;;;4.57;1.98;;;22.20;19.90;;;;;;5079198;28;20675;-82
2022/07/08 11:27:41;;;;;;;4.13;1.90;;;22.20;19.40;;;;;;5079211;28;20204;-85
2022/07/08 11:30:18;;;;;;;2.83;1.58;;;21.70;18.40;;;;;;5081544;28;20192;-85
2022/07/08 11:32:49;;;;;;;4.15;1.83;;;21.40;20.30;;;;;;5079209;28;20304;-85
2022/07/08 11:35:17;;;;;;;3.88;1.85;;;21.30;20.10;;;;;;5070676;28;20201;-85
2022/07/08 11:37:47;;;;;;;5.68;1.95;;;21.70;21.80;;;;;;5075387;28;20701;-84
2022/07/08 11:40:16;;;;;;;4.53;1.90;;;21.90;20.70;;;;;;5074552;28;20194;-84
2022/07/08 11:42:44;;;;;;;7.47;1.95;;;22.00;21.80;;;;;;5072985;28;20232;-85
2022/07/08 11:45:17;;;;;;;3.53;1.70;;;22.30;20.10;;;;;;5075117;28;20201;-84
2022/07/08 11:47:44;;;;;;;5.82;1.90;;;21.90;19.30;;;;;;5071897;28;20201;-84
2022/07/08 11:50:18;;;;;;;5.40;1.95;;;21.30;19.20;;;;;;5074750;28;20200;-84
2022/07/08 11:52:47;;;;;;;3.60;1.85;;;20.70;21.30;;;;;;5074480;28;20205;-84
2022/07/08 11:55:19;;;;;;;5.53;2.20;;;20.60;22.00;;;;;;5072712;28;20197;-85
2022/07/08 11:57:53;;;;;;;5.95;2.05;;;20.50;22.80;;;;;;5071313;28;20236;-84
2022/07/08 12:00:40;;;;;;;4.68;1.98;;;21.00;22.70;;;;;;5073967;28;20190;-84
2022/07/08 12:03:11;;;;;;;3.97;1.83;;;21.20;19.70;;;;;;5073135;28;20197;-84
2022/07/08 12:05:54;;;;;;;4.70;1.63;;;21.10;22.20;;;;;;5068649;28;20201;-84
2022/07/08 12:08:22;;;;;;;5.07;2.05;;;21.30;23.00;;;;;;5070853;28;20212;-82
2022/07/08 12:10:49;;;;;;;4.47;1.80;;;21.20;21.20;;;;;;5064742;28;20194;-83
2022/07/08 12:13:41;;;;;;;4.97;1.95;;;21.50;20.60;;;;;;5075532;28;20213;-82
2022/07/08 12:16:11;;;;;;;5.43;2.08;;;21.40;21.40;;;;;;5071261;28;20193;-84
2022/07/08 12:18:45;;;;;;;5.97;2.22;;;21.50;19.20;;;;;;5071300;28;20221;-82
2022/07/08 12:21:24;;;;;;;4.88;2.03;;;21.60;20.30;;;;;;5067886;28;20699;-83
2022/07/08 12:24:00;;;;;;;3.97;2.25;;;21.40;19.60;;;;;;5065478;28;20198;-82
2022/07/08 12:26:53;;;;;;;5.22;1.90;;;21.20;21.30;;;;;;5070849;28;20679;-83
2022/07/08 12:29:20;;;;;;;5.00;1.95;;;21.20;22.80;;;;;;5068676;28;20201;-83
2022/07/08 12:31:47;;;;;;;4.85;2.33;;;21.30;20.00;;;;;;5060931;28;20592;-84
2022/07/08 12:34:17;;;;;;;4.50;1.90;;;21.30;19.40;;;;;;5065852;28;20261;-82
2022/07/08 12:36:46;;;;;;;4.18;1.75;;;21.10;19.90;;;;;;5064956;28;20628;-81
2022/07/08 12:39:14;;;;;;;6.32;2.03;;;20.60;20.70;;;;;;5070467;28;20206;-82
2022/07/08 12:41:59;;;;;;;9.35;1.95;;;20.90;22.80;;;;;;5071832;28;20216;-82
2022/07/08 12:44:31;;;;;;;4.88;2.10;;;21.20;21.50;;;;;;5076006;28;20201;-82
2022/07/08 12:47:05;;;;;;;5.97;2.20;;;21.40;21.40;;;;;;5063555;28;20200;-81
2022/07/08 12:49:34;;;;;;;2.95;1.75;;;21.40;21.40;;;;;;5074587;28;20191;-81
2022/07/08 12:52:18;;;;;;;5.28;1.60;;;21.90;20.30;;;;;;5068883;28;20204;-81
2022/07/08 12:54:53;;;;;;;4.88;1.90;;;22.20;18.90;;;;;;5072696;28;20189;-81
2022/07/08 12:57:23;;;;;;;4.07;1.70;;;21.90;18.50;;;;;;5073675;28;20205;-81
2022/07/08 12:59:50;;;;;;;6.32;1.70;;;21.10;19.20;;;;;;5072424;28;20236;-81
2022/07/08 13:02:29;;;;;;;5.43;2.08;;;20.90;21.80;;;;;;5081370;28;20197;-82
2022/07/08 13:04:55;;;;;;;7.20;2.05;;;20.80;20.10;;;;;;5076801;28;20193;-81
2022/07/08 13:07:24;;;;;;;4.63;1.75;;;20.80;19.80;;;;;;5074019;28;20193;-81
2022/07/08 13:09:51;;;;;;;6.53;1.90;;;21.20;21.60;;;;;;5073978;28;20194;-83
2022/07/08 13:12:18;;;;;;;6.57;2.22;;;21.60;20.90;;;;;;5069483;28;20869;-81
2022/07/08 13:14:53;;;;;;;3.80;1.80;;;21.90;21.40;;;;;;5077759;28;20196;-82
2022/07/08 13:17:29;;;;;;;3.65;2.13;;;21.90;19.20;;;;;;5073657;28;20237;-81
2022/07/08 13:20:06;;;;;;;3.47;1.67;;;21.90;18.20;;;;;;5072556;28;20283;-82
2022/07/08 13:22:34;;;;;;;3.03;1.90;;;22.10;18.40;;;;;;5078943;28;20193;-81